KCVS

Cannon AFB Airport

Clovis, New Mexico, USA
METAR KCVS 240146Z 15006KT 10SM VCTS SCT080 BKN150 20/17 A3007 RMK AO2A TS 9 E MOVG NE LTG DSNT SE AND NW RAE46 SLP135 $
Observed Flight Rules
May-24 @ 01:46 UTC (21 minutes ago) Visual Flight Rules
Wind Visibility Clouds Conditions
150° at 6 knots 10 miles
  • Scattered at 8,000' AGL
  • Broken at 15,000' AGL
  • Area Thunderstorm
Temperatures Readings
Current 20°C / 68°F
Dewpoint 17°C / 63°F
Humidity 83%
Altimeter 30.07" Hg
Pressure 1013.5 hPa
Elevation 1309
METAR KCVS 240146Z 15006KT 10SM VCTS SCT080 BKN150 20/17 A3007 RMK AO2A TS 9 E MOVG NE LTG DSNT SE AND NW RAE46 SLP135 $
Observed Flight Rules
May-24 @ 01:46 UTC
(21 minutes ago)
VFR
Wind Visibility
150° at 6 knots 10 miles
Clouds
  • Scattered at 8,000' AGL
  • Broken at 15,000' AGL
Conditions
  • Area Thunderstorm
Temperature Dewpoint
20°C / 68°F 17°C / 63°F
Humidity Altimeter Pressure
83% 30.07" Hg 1013.5 hPa